Time;durP1;ratioP1;P1;durP2;ratioP2;P2;SDS_P1;SDS_P2;PMS_P1;PMS_P2;Temp;Humidity;BMP_temperature;BMP_pressure;BME280_temperature;BME280_humidity;BME280_pressure;Samples;Min_cycle;Max_cycle;Signal;HPM_P1;HPM_P2
2023/03/18 09:50:18;;;;;;;;;;;;;;;19.48;34.10;99520.19;1088068;54;19935;-84
2023/03/18 09:51:32;;;;;;;;;;;;;;;19.35;34.28;99519.44;1088146;54;19938;-83
2023/03/18 09:52:52;;;;;;;;;;;;;;;19.67;34.69;99517.59;1088665;39;20830;-84
2023/03/18 09:57:41;;;;;;;;;;;;;;;19.85;33.83;99508.78;1087390;54;19942;-81
2023/03/18 10:02:41;;;;;;;;;;;;;;;;;;;;;
2023/03/18 10:53:53;;;;;;;;;;;;;;;21.57;30.50;99477.56;1086619;39;20523;-80
2023/03/18 10:54:58;;;;;;;;;;;;;;;21.64;30.47;99476.44;1088074;54;19941;-81
2023/03/18 10:56:10;;;;;;;;;;;;;;;21.73;30.12;99467.94;1088039;54;19974;-82
2023/03/18 10:57:13;;;;;;;;;;;;;;;21.58;29.69;99471.94;1087755;54;19942;-83
2023/03/18 10:58:24;;;;;;;;;;;;;;;21.71;29.73;99467.34;1088491;47;19950;-83
2023/03/18 10:59:27;;;;;;;;;;;;;;;21.76;30.16;99462.88;1087873;54;20006;-84
2023/03/18 11:00:42;;;;;;;;;;;;;;;21.80;29.29;99463.25;1087952;54;19938;-82
2023/03/18 11:01:45;;;;;;;;;;;;;;;21.83;29.43;99462.75;1087918;54;19967;-85
2023/03/18 11:02:56;;;;;;;;;;;;;;;21.84;29.61;99458.16;1087967;54;19950;-83
2023/03/18 11:03:59;;;;;;;;;;;;;;;21.94;29.24;99464.69;1087976;54;19949;-82
2023/03/18 11:05:07;;;;;;;;;;;;;;;21.97;29.66;99464.22;1087871;54;20003;-84
2023/03/18 11:06:14;;;;;;;;;;;;;;;21.74;29.19;99465.00;1088067;54;19954;-82
2023/03/18 11:07:22;;;;;;;;;;;;;;;21.74;29.56;99461.44;1088047;54;19942;-83
2023/03/18 11:08:28;;;;;;;;;;;;;;;21.78;30.19;99462.63;1088370;39;20513;-86
2023/03/18 11:09:38;;;;;;;;;;;;;;;21.39;29.96;99467.56;1088071;54;20051;-81
2023/03/18 11:10:45;;;;;;;;;;;;;;;21.43;29.79;99466.88;1087907;54;19943;-85
2023/03/18 11:11:50;;;;;;;;;;;;;;;21.41;29.90;99468.97;1088363;54;19942;-83
2023/03/18 11:12:54;;;;;;;;;;;;;;;21.34;30.33;99460.94;1088308;54;19951;-82
2023/03/18 11:14:01;;;;;;;;;;;;;;;21.16;30.19;99458.25;1088144;54;20002;-86
2023/03/18 11:15:05;;;;;;;;;;;;;;;21.28;29.83;99466.47;1088437;54;19967;-84
2023/03/18 11:16:22;;;;;;;;;;;;;;;20.89;30.04;99472.16;1088120;54;19959;-83
2023/03/18 11:17:29;;;;;;;;;;;;;;;20.63;30.41;99471.34;1088045;54;19927;-83
2023/03/18 11:18:33;;;;;;;;;;;;;;;20.24;31.18;99473.41;1088372;54;19934;-84
2023/03/18 11:19:40;;;;;;;;;;;;;;;20.06;31.43;99472.31;1088209;54;19938;-82
2023/03/18 11:20:43;;;;;;;;;;;;;;;19.87;32.07;99467.88;1088129;54;19942;-83
2023/03/18 11:21:47;;;;;;;;;;;;;;;19.77;32.03;99474.56;1088158;54;19943;-82
2023/03/18 11:22:51;;;;;;;;;;;;;;;19.78;32.46;99470.00;1088183;54;19966;-83
2023/03/18 11:25:17;;;;;;;;;;;;;;;19.78;32.04;99467.28;1088176;54;19950;-84
2023/03/18 11:26:22;;;;;;;;;;;;;;;19.86;32.51;99466.19;1088251;54;19926;-82
2023/03/18 11:27:28;;;;;;;;;;;;;;;19.63;31.64;99465.69;1088083;54;19942;-83
2023/03/18 11:28:32;;;;;;;;;;;;;;;19.75;31.79;99465.81;1088312;54;19927;-84
2023/03/18 11:29:33;;;;;;;;;;;;;;;19.78;31.87;99470.81;1088337;54;19950;-83
2023/03/18 11:30:49;;;;;;;;;;;;;;;19.77;31.78;99465.63;1088253;54;19943;-82
2023/03/18 11:31:53;;;;;;;;;;;;;;;19.72;31.58;99471.69;1088393;54;19958;-84
2023/03/18 11:33:00;;;;;;;;;;;;;;;19.52;32.19;99462.84;1088157;54;19938;-82
2023/03/18 11:34:07;;;;;;;;;;;;;;;19.43;32.51;99468.53;1088447;54;19939;-84
2023/03/18 11:35:20;;;;;;;;;;;;;;;19.42;32.65;99455.19;1088461;54;19946;-84
2023/03/18 11:36:22;;;;;;;;;;;;;;;19.39;32.83;99456.47;1088318;54;19934;-82
2023/03/18 11:37:40;;;;;;;;;;;;;;;19.27;32.83;99452.78;1088331;54;19942;-84
2023/03/18 11:38:42;;;;;;;;;;;;;;;19.04;33.18;99464.97;1088317;54;19950;-83
2023/03/18 11:39:47;;;;;;;;;;;;;;;18.88;33.39;99455.41;1088428;54;19934;-85
2023/03/18 11:40:48;;;;;;;;;;;;;;;19.09;33.53;99448.06;1088357;47;19966;-81
2023/03/18 11:42:02;;;;;;;;;;;;;;;19.04;33.54;99448.72;1088302;54;19953;-84
2023/03/18 11:43:16;;;;;;;;;;;;;;;18.98;33.21;99439.56;1088230;54;19935;-83
2023/03/18 11:44:21;;;;;;;;;;;;;;;19.12;33.23;99448.47;1090079;46;19995;-83
2023/03/18 11:45:41;;;;;;;;;;;;;;;19.12;33.42;99439.53;1088493;54;19943;-83
2023/03/18 11:46:47;;;;;;;;;;;;;;;19.17;33.49;99440.53;1094500;31;20643;-85
2023/03/18 11:47:48;;;;;;;;;;;;;;;19.19;33.39;99443.03;1088385;54;19974;-83
2023/03/18 11:48:53;;;;;;;;;;;;;;;19.12;33.62;99443.06;1088435;54;19949;-83
2023/03/18 11:49:56;;;;;;;;;;;;;;;18.77;33.58;99437.97;1088334;54;19942;-83
2023/03/18 11:51:23;;;;;;;;;;;;;;;18.66;34.04;99436.72;1088285;54;19934;-83
2023/03/18 11:52:35;;;;;;;;;;;;;;;18.86;33.68;99436.69;1088389;54;19934;-83
2023/03/18 11:53:43;;;;;;;;;;;;;;;18.94;33.68;99426.69;1088305;54;19935;-84
2023/03/18 11:55:03;;;;;;;;;;;;;;;18.95;33.79;99434.56;1087789;54;19935;-84
2023/03/18 11:56:09;;;;;;;;;;;;;;;18.95;33.50;99431.88;1088348;54;19934;-85
2023/03/18 12:56:23;;;;;;;;;;;;;;;19.21;32.68;99381.34;1086470;54;19939;-81
2023/03/18 13:00:17;;;;;;;;;;;;;;;19.53;32.77;99364.22;1078583;54;21349;-81
2023/03/18 13:01:20;;;;;;;;;;;;;;;19.63;32.32;99370.81;1089200;46;19938;-82
2023/03/18 13:02:40;;;;;;;;;;;;;;;19.70;32.22;99373.47;1087646;54;19952;-81
2023/03/18 13:03:45;;;;;;;;;;;;;;;19.68;32.14;99374.75;1087686;54;20563;-81
2023/03/18 13:04:50;;;;;;;;;;;;;;;19.52;32.15;99368.81;1089048;46;19958;-80
2023/03/18 13:05:57;;;;;;;;;;;;;;;19.49;32.62;99369.25;1089914;46;19950;-83
2023/03/18 13:07:02;;;;;;;;;;;;;;;19.55;32.43;99364.84;1088780;46;19934;-82
2023/03/18 13:08:23;;;;;;;;;;;;;;;19.56;32.59;99370.03;1088090;54;19943;-81
2023/03/18 13:09:35;;;;;;;;;;;;;;;19.71;32.05;99369.72;1088589;46;19974;-81
2023/03/18 13:10:36;;;;;;;;;;;;;;;19.74;32.26;99365.72;1089948;39;20420;-82
2023/03/18 13:11:58;;;;;;;;;;;;;;;19.83;32.31;99360.88;1087206;54;19953;-80
2023/03/18 13:13:05;;;;;;;;;;;;;;;19.84;31.76;99366.06;1087787;39;20420;-81
2023/03/18 13:14:12;;;;;;;;;;;;;;;19.88;31.53;99355.63;1087413;54;19946;-81
2023/03/18 13:15:24;;;;;;;;;;;;;;;19.92;31.59;99351.41;1087274;54;19950;-82
2023/03/18 13:16:26;;;;;;;;;;;;;;;20.02;31.75;99357.16;1087648;54;19943;-81
2023/03/18 13:17:33;;;;;;;;;;;;;;;20.06;31.74;99358.38;1087906;54;19990;-82
2023/03/18 13:18:37;;;;;;;;;;;;;;;20.03;31.65;99357.97;1088080;54;19951;-83
2023/03/18 13:19:43;;;;;;;;;;;;;;;19.75;31.76;99354.66;1087938;54;20547;-82
2023/03/18 13:20:45;;;;;;;;;;;;;;;19.71;31.83;99360.72;1087199;54;19946;-82
2023/03/18 13:21:52;;;;;;;;;;;;;;;19.85;31.87;99364.16;1087823;54;19943;-83
2023/03/18 13:23:08;;;;;;;;;;;;;;;19.96;31.63;99358.03;1087549;54;19958;-82
2023/03/18 13:24:28;;;;;;;;;;;;;;;19.97;31.20;99356.19;1087561;54;19950;-82
2023/03/18 13:25:39;;;;;;;;;;;;;;;20.00;31.52;99356.56;1087735;54;19973;-81
2023/03/18 13:26:53;;;;;;;;;;;;;;;20.01;31.25;99354.66;1087813;54;19946;-82
2023/03/18 13:28:18;;;;;;;;;;;;;;;20.07;31.45;99351.88;1087151;54;19943;-82
2023/03/18 13:29:24;;;;;;;;;;;;;;;20.13;31.53;99352.03;1086764;54;19947;-81
2023/03/18 13:30:38;;;;;;;;;;;;;;;20.16;31.71;99346.16;1086750;54;19954;-80
2023/03/18 13:31:46;;;;;;;;;;;;;;;20.16;31.49;99351.59;1086719;54;19942;-80
2023/03/18 13:32:58;;;;;;;;;;;;;;;20.19;31.46;99353.88;1086988;54;19951;-83
2023/03/18 13:34:25;;;;;;;;;;;;;;;20.18;31.17;99349.50;1088406;39;20652;-81
2023/03/18 13:35:42;;;;;;;;;;;;;;;20.25;30.91;99347.53;1087759;54;19971;-83
2023/03/18 13:39:24;;;;;;;;;;;;;;;20.07;30.92;99351.88;1088927;39;21148;-85
2023/03/18 13:40:32;;;;;;;;;;;;;;;20.02;31.04;99350.91;1088202;54;19947;-84
2023/03/18 13:41:51;;;;;;;;;;;;;;;20.03;31.38;99342.53;1087886;54;19979;-84
2023/03/18 14:22:56;;;;;;;;;;;;;;;20.15;30.07;99318.22;1086244;54;19950;-82
2023/03/18 14:24:04;;;;;;;;;;;;;;;20.16;30.19;99328.03;1089636;39;20357;-80
2023/03/18 14:25:20;;;;;;;;;;;;;;;20.16;30.21;99327.16;1087008;54;19929;-82
2023/03/18 14:26:25;;;;;;;;;;;;;;;20.03;30.63;99331.69;1087369;54;19975;-81
2023/03/18 14:27:27;;;;;;;;;;;;;;;20.03;30.74;99330.84;1086589;54;19958;-82
2023/03/18 14:28:32;;;;;;;;;;;;;;;20.06;30.82;99325.81;1086692;54;20038;-80
2023/03/18 14:29:37;;;;;;;;;;;;;;;20.07;30.36;99322.03;1083872;54;19958;-81
2023/03/18 14:31:08;;;;;;;;;;;;;;;20.08;30.22;99321.00;1090088;39;20389;-82
2023/03/18 14:32:26;;;;;;;;;;;;;;;20.12;30.18;99321.38;1087254;54;19939;-80
2023/03/18 14:33:52;;;;;;;;;;;;;;;20.09;29.65;99319.09;1086402;54;19950;-82
2023/03/18 14:34:57;;;;;;;;;;;;;;;20.08;30.38;99314.72;1086101;54;19969;-80
2023/03/18 14:36:00;;;;;;;;;;;;;;;20.10;30.14;99316.19;1085709;54;19950;-81
2023/03/18 14:37:24;;;;;;;;;;;;;;;20.13;30.10;99317.59;1085775;54;19942;-80
2023/03/18 14:38:32;;;;;;;;;;;;;;;20.17;30.03;99317.97;1085059;54;19963;-80
2023/03/18 14:39:37;;;;;;;;;;;;;;;20.18;30.20;99320.47;1084977;54;19954;-79
2023/03/18 14:40:42;;;;;;;;;;;;;;;20.20;29.77;99314.81;1085021;54;19942;-79
2023/03/18 14:41:48;;;;;;;;;;;;;;;20.21;30.13;99305.63;1085029;54;19946;-80
2023/03/18 14:42:59;;;;;;;;;;;;;;;20.20;29.92;99306.69;1084977;54;19973;-80
2023/03/18 14:44:20;;;;;;;;;;;;;;;20.15;29.36;99303.81;1085275;54;19961;-80
2023/03/18 14:45:27;;;;;;;;;;;;;;;20.07;29.51;99303.06;1085242;54;19951;-81
2023/03/18 14:46:31;;;;;;;;;;;;;;;20.04;29.63;99306.22;1085814;54;19962;-80
2023/03/18 14:47:41;;;;;;;;;;;;;;;20.02;29.76;99305.63;1086136;54;19947;-80
2023/03/18 14:48:48;;;;;;;;;;;;;;;20.00;29.81;99302.31;1086417;54;19935;-80
2023/03/18 14:49:59;;;;;;;;;;;;;;;20.03;29.70;99299.13;1086410;54;19957;-81
2023/03/18 14:51:07;;;;;;;;;;;;;;;20.07;29.44;99297.63;1090232;46;19970;-81
2023/03/18 14:52:15;;;;;;;;;;;;;;;20.06;29.50;99298.69;1088315;54;19994;-82
2023/03/18 14:53:22;;;;;;;;;;;;;;;19.99;29.25;99303.34;1089261;46;19966;-79
2023/03/18 14:54:26;;;;;;;;;;;;;;;19.94;30.32;99304.03;1088210;54;19962;-82
2023/03/18 14:55:36;;;;;;;;;;;;;;;19.89;30.68;99305.75;1088282;46;19972;-80
2023/03/18 14:56:39;;;;;;;;;;;;;;;19.83;31.40;99301.19;1087979;54;19943;-80
2023/03/18 14:59:25;;;;;;;;;;;;;;;19.85;31.48;99304.50;1088234;54;19942;-81
2023/03/18 15:00:29;;;;;;;;;;;;;;;19.74;31.36;99298.75;1088262;54;19962;-82
2023/03/18 15:01:38;;;;;;;;;;;;;;;19.67;31.62;99305.31;1088539;46;19946;-82
2023/03/18 15:02:39;;;;;;;;;;;;;;;19.61;31.67;99293.47;1088676;46;19954;-82
2023/03/18 15:03:54;;;;;;;;;;;;;;;19.60;32.02;99303.47;1088119;54;19950;-80
2023/03/18 15:04:58;;;;;;;;;;;;;;;19.63;31.70;99294.09;1088079;46;19938;-82
2023/03/18 15:09:20;;;;;;;;;;;;;;;19.64;31.61;99290.31;1087952;39;20660;-80
2023/03/18 15:10:34;;;;;;;;;;;;;;;19.63;31.64;99294.09;1086910;54;19951;-81
2023/03/18 15:11:46;;;;;;;;;;;;;;;19.68;31.58;99302.38;1086877;54;19958;-81
2023/03/18 15:12:59;;;;;;;;;;;;;;;19.71;31.60;99295.66;1087502;54;19958;-81
2023/03/18 15:15:35;;;;;;;;;;;;;;;19.74;31.59;99296.03;1086863;54;20008;-81
2023/03/18 15:18:23;;;;;;;;;;;;;;;19.79;31.88;99295.38;1087247;54;19952;-81
2023/03/18 15:19:29;;;;;;;;;;;;;;;19.79;31.80;99293.50;1087621;54;19939;-81
2023/03/18 15:20:36;;;;;;;;;;;;;;;19.82;31.56;99291.41;1087646;54;19931;-81
2023/03/18 15:21:39;;;;;;;;;;;;;;;19.84;31.68;99281.19;1087302;54;19923;-80
2023/03/18 15:22:44;;;;;;;;;;;;;;;19.85;31.67;99293.66;1086983;54;19950;-81
2023/03/18 15:23:55;;;;;;;;;;;;;;;19.83;31.49;99287.66;1086859;54;19993;-82
2023/03/18 15:25:05;;;;;;;;;;;;;;;19.85;31.60;99290.94;1087608;54;19942;-80
2023/03/18 15:26:21;;;;;;;;;;;;;;;19.86;32.08;99287.22;1087048;54;19973;-82
2023/03/18 15:27:39;;;;;;;;;;;;;;;19.86;31.62;99287.22;1087222;54;19951;-80
2023/03/18 15:28:45;;;;;;;;;;;;;;;19.85;32.00;99283.69;1087828;46;19951;-81
2023/03/18 15:29:52;;;;;;;;;;;;;;;19.88;31.99;99285.97;1086916;54;19939;-81
2023/03/18 15:30:58;;;;;;;;;;;;;;;19.88;32.47;99285.97;1087091;54;20021;-80
2023/03/18 15:32:10;;;;;;;;;;;;;;;19.80;32.25;99292.47;1087801;46;19942;-81
2023/03/18 15:33:20;;;;;;;;;;;;;;;19.75;32.86;99292.28;1087061;54;19969;-82
2023/03/18 15:34:23;;;;;;;;;;;;;;;19.75;32.48;99289.56;1086990;54;19950;-81
2023/03/18 15:35:29;;;;;;;;;;;;;;;19.75;32.60;99292.28;1086871;54;19938;-80
2023/03/18 15:36:43;;;;;;;;;;;;;;;19.74;32.63;99290.63;1086778;54;19942;-80
2023/03/18 15:37:45;;;;;;;;;;;;;;;19.63;32.25;99294.91;1086805;54;19991;-81
2023/03/18 15:38:52;;;;;;;;;;;;;;;19.66;32.77;99296.34;1086776;54;19939;-80
2023/03/18 15:39:55;;;;;;;;;;;;;;;19.66;32.68;99296.34;1087080;54;19971;-82
2023/03/18 15:41:03;;;;;;;;;;;;;;;19.68;32.36;99296.13;1087261;54;19950;-81
2023/03/18 15:42:13;;;;;;;;;;;;;;;19.64;32.28;99298.47;1087208;54;19938;-81
2023/03/18 15:43:29;;;;;;;;;;;;;;;19.66;32.29;99290.91;1087340;54;19942;-81
2023/03/18 15:44:34;;;;;;;;;;;;;;;19.69;32.78;99289.66;1087547;54;19950;-81
2023/03/18 15:45:40;;;;;;;;;;;;;;;19.71;32.42;99293.78;1088226;46;19923;-81
2023/03/18 15:46:48;;;;;;;;;;;;;;;19.69;32.30;99293.19;1087392;54;19950;-81
2023/03/18 15:47:50;;;;;;;;;;;;;;;19.64;32.38;99293.84;1087489;54;19950;-80
2023/03/18 15:48:55;;;;;;;;;;;;;;;19.62;32.88;99295.13;1087464;54;19941;-82
2023/03/18 15:49:59;;;;;;;;;;;;;;;19.60;32.52;99286.38;1087677;46;19950;-81
2023/03/18 15:51:31;;;;;;;;;;;;;;;19.57;32.91;99294.97;1087737;54;19947;-81
2023/03/18 15:52:40;;;;;;;;;;;;;;;19.53;32.77;99293.75;1088415;46;19945;-80
2023/03/18 15:53:46;;;;;;;;;;;;;;;19.50;32.63;99300.47;1086961;54;19947;-82
2023/03/18 15:54:50;;;;;;;;;;;;;;;19.50;32.93;99297.75;1086838;54;19957;-82
2023/03/18 15:55:55;;;;;;;;;;;;;;;19.49;33.15;99298.78;1088198;46;20035;-81
2023/03/18 15:57:00;;;;;;;;;;;;;;;19.50;33.25;99295.03;1086506;54;19950;-80
2023/03/18 15:58:14;;;;;;;;;;;;;;;19.47;33.24;99295.47;1086719;54;19958;-82
2023/03/18 15:59:26;;;;;;;;;;;;;;;19.49;33.27;99298.78;1086683;54;19981;-82
2023/03/18 16:00:27;;;;;;;;;;;;;;;19.52;33.45;99305.66;1086477;54;19950;-83
2023/03/18 16:01:45;;;;;;;;;;;;;;;19.52;33.41;99303.75;1086930;46;20029;-82
2023/03/18 16:02:49;;;;;;;;;;;;;;;19.48;34.00;99299.84;1087785;46;19950;-81
2023/03/18 16:03:53;;;;;;;;;;;;;;;19.46;33.81;99300.03;1085749;54;19958;-81
2023/03/18 16:05:03;;;;;;;;;;;;;;;19.45;33.73;99294.84;1085424;54;19939;-81
2023/03/18 16:06:09;;;;;;;;;;;;;;;19.48;34.13;99297.13;1085460;54;19938;-81
2023/03/18 16:07:17;;;;;;;;;;;;;;;19.49;34.03;99296.09;1085974;54;19947;-80
2023/03/18 16:08:20;;;;;;;;;;;;;;;19.48;34.21;99292.53;1085219;54;19988;-81
2023/03/18 16:09:24;;;;;;;;;;;;;;;19.46;34.75;99297.34;1085171;54;20043;-83
2023/03/18 16:10:26;;;;;;;;;;;;;;;19.44;34.66;99301.31;1085199;54;19974;-80
2023/03/18 16:11:35;;;;;;;;;;;;;;;19.45;34.72;99293.00;1086060;54;19973;-81
2023/03/18 16:12:38;;;;;;;;;;;;;;;19.39;35.05;99296.56;1086112;54;19989;-81
2023/03/18 16:13:56;;;;;;;;;;;;;;;19.41;34.92;99299.91;1087460;39;20504;-81
2023/03/18 16:15:01;;;;;;;;;;;;;;;19.32;35.63;99298.50;1086370;39;20335;-81
2023/03/18 16:16:05;;;;;;;;;;;;;;;19.27;35.70;99301.88;1085697;54;19958;-80
2023/03/18 16:17:10;;;;;;;;;;;;;;;19.27;35.92;99301.88;1085111;54;19950;-81
2023/03/18 16:18:16;;;;;;;;;;;;;;;19.24;36.22;99304.19;1085443;54;20215;-81
2023/03/18 16:19:24;;;;;;;;;;;;;;;19.21;36.02;99304.63;1085717;54;19950;-81
2023/03/18 16:20:27;;;;;;;;;;;;;;;19.21;36.10;99310.06;1086082;54;19950;-80
2023/03/18 16:21:33;;;;;;;;;;;;;;;19.18;36.24;99300.50;1085877;54;19935;-81
2023/03/18 16:22:38;;;;;;;;;;;;;;;19.17;36.58;99309.66;1085829;54;20592;-80
2023/03/18 16:23:42;;;;;;;;;;;;;;;19.11;36.72;99305.13;1085072;54;19947;-81
2023/03/18 16:24:43;;;;;;;;;;;;;;;19.05;36.77;99306.84;1086648;39;20442;-80
2023/03/18 16:25:49;;;;;;;;;;;;;;;19.09;36.72;99315.34;1085997;54;20059;-82
2023/03/18 16:26:51;;;;;;;;;;;;;;;19.11;36.84;99313.25;1085984;54;19946;-81
2023/03/18 16:28:01;;;;;;;;;;;;;;;19.12;36.83;99315.75;1085900;54;19958;-80
2023/03/18 16:29:14;;;;;;;;;;;;;;;19.06;37.08;99318.47;1086445;54;19946;-80
2023/03/18 16:30:21;;;;;;;;;;;;;;;19.07;36.94;99323.69;1086559;54;19962;-80
2023/03/18 16:31:25;;;;;;;;;;;;;;;19.08;36.97;99319.91;1086319;54;19966;-81
2023/03/18 16:32:26;;;;;;;;;;;;;;;19.01;37.66;99324.56;1086114;46;19950;-81
2023/03/18 16:33:30;;;;;;;;;;;;;;;18.93;38.55;99327.53;1087279;39;20468;-80
2023/03/18 16:35:56;;;;;;;;;;;;;;;18.67;40.01;99337.41;1086459;54;19953;-80
2023/03/18 16:36:58;;;;;;;;;;;;;;;18.53;40.06;99332.06;1086756;54;19939;-81
2023/03/18 16:38:02;;;;;;;;;;;;;;;18.47;40.52;99332.06;1086652;54;19948;-79
2023/03/18 16:39:15;;;;;;;;;;;;;;;18.33;40.94;99334.84;1086483;54;19958;-80
2023/03/18 16:40:20;;;;;;;;;;;;;;;18.31;40.86;99341.50;1086538;54;20621;-80
2023/03/18 16:41:24;;;;;;;;;;;;;;;18.33;41.02;99339.41;1086019;54;19946;-80
2023/03/18 16:42:26;;;;;;;;;;;;;;;18.29;41.36;99340.88;1085829;54;19954;-80
2023/03/18 16:43:32;;;;;;;;;;;;;;;18.36;40.93;99339.84;1085883;54;20010;-80
2023/03/18 16:44:34;;;;;;;;;;;;;;;18.17;41.46;99340.72;1086152;54;19990;-79
2023/03/18 16:45:40;;;;;;;;;;;;;;;18.25;41.13;99337.78;1085667;54;20046;-79
2023/03/18 16:46:46;;;;;;;;;;;;;;;18.26;40.87;99344.84;1085492;54;19954;-80
2023/03/18 16:47:48;;;;;;;;;;;;;;;18.35;40.70;99340.03;1086084;54;19947;-79
2023/03/18 16:48:56;;;;;;;;;;;;;;;18.36;40.65;99342.53;1086277;54;19946;-79
2023/03/18 16:49:57;;;;;;;;;;;;;;;18.35;40.78;99342.72;1087386;54;19947;-81
2023/03/18 16:51:25;;;;;;;;;;;;;;;18.29;40.67;99344.41;1087335;54;19939;-81
2023/03/18 16:52:28;;;;;;;;;;;;;;;18.19;41.05;99344.88;1088738;46;19977;-81
2023/03/18 16:54:54;;;;;;;;;;;;;;;18.15;40.81;99337.38;1087808;54;19978;-82
2023/03/18 16:55:57;;;;;;;;;;;;;;;18.17;40.97;99336.13;1087581;54;19950;-80
2023/03/18 16:57:03;;;;;;;;;;;;;;;18.23;40.70;99335.25;1087491;54;20007;-82
2023/03/18 16:58:04;;;;;;;;;;;;;;;18.23;40.57;99340.69;1086345;54;19946;-80
2023/03/18 16:59:14;;;;;;;;;;;;;;;18.20;40.36;99333.00;1086299;54;19977;-80
2023/03/18 17:00:18;;;;;;;;;;;;;;;18.24;40.16;99344.22;1086520;54;19954;-80
2023/03/18 17:01:26;;;;;;;;;;;;;;;18.17;40.24;99346.94;1086207;54;20006;-82
2023/03/18 17:02:31;;;;;;;;;;;;;;;18.15;40.55;99342.78;1086184;54;19962;-81
2023/03/18 17:03:35;;;;;;;;;;;;;;;18.14;40.38;99347.34;1085883;54;19938;-80
2023/03/18 17:04:36;;;;;;;;;;;;;;;18.03;40.57;99350.72;1085825;54;19981;-82
2023/03/18 17:05:41;;;;;;;;;;;;;;;17.97;40.43;99352.41;1086373;54;19953;-79
2023/03/18 17:06:42;;;;;;;;;;;;;;;17.98;40.66;99350.53;1086427;54;19953;-80
2023/03/18 17:07:46;;;;;;;;;;;;;;;18.02;40.51;99358.00;1086101;54;20043;-81
2023/03/18 17:08:51;;;;;;;;;;;;;;;18.06;40.53;99358.41;1085875;54;19947;-80
2023/03/18 17:09:59;;;;;;;;;;;;;;;17.92;40.83;99360.25;1086519;54;20552;-78
2023/03/18 17:11:04;;;;;;;;;;;;;;;17.81;40.82;99366.28;1086415;54;19942;-78
2023/03/18 17:13:39;;;;;;;;;;;;;;;17.69;41.14;99368.81;1086559;54;20531;-80
2023/03/18 17:14:42;;;;;;;;;;;;;;;17.79;40.79;99369.22;1086099;54;19953;-79
2023/03/18 17:15:46;;;;;;;;;;;;;;;17.84;40.90;99372.16;1086361;54;19946;-78
2023/03/18 17:17:08;;;;;;;;;;;;;;;17.85;40.79;99376.53;1086220;54;19977;-80
2023/03/18 17:18:17;;;;;;;;;;;;;;;17.83;41.04;99372.34;1086206;54;19958;-80
2023/03/18 17:19:21;;;;;;;;;;;;;;;17.81;41.18;99369.84;1086332;54;19939;-80
2023/03/18 17:20:33;;;;;;;;;;;;;;;17.80;41.03;99379.00;1086092;54;19958;-78
2023/03/18 17:21:35;;;;;;;;;;;;;;;17.84;40.85;99380.25;1086638;46;19953;-80
2023/03/18 17:22:48;;;;;;;;;;;;;;;17.74;41.18;99374.44;1086004;54;19942;-79
2023/03/18 17:23:49;;;;;;;;;;;;;;;17.65;41.03;99375.69;1086400;54;19950;-80
2023/03/18 17:24:55;;;;;;;;;;;;;;;17.58;41.46;99371.09;1086404;54;20569;-80
2023/03/18 17:26:03;;;;;;;;;;;;;;;17.62;41.12;99377.75;1085896;54;19950;-80
2023/03/18 17:27:04;;;;;;;;;;;;;;;17.56;41.36;99375.03;1086161;54;19942;-78
2023/03/18 17:28:31;;;;;;;;;;;;;;;17.55;41.15;99379.63;1086049;54;19952;-80
2023/03/18 17:29:32;;;;;;;;;;;;;;;17.62;41.05;99372.34;1086271;54;19946;-79
2023/03/18 17:30:38;;;;;;;;;;;;;;;17.65;40.87;99375.69;1086258;54;20469;-80
2023/03/18 17:31:41;;;;;;;;;;;;;;;17.62;40.68;99383.16;1086385;54;19954;-81
2023/03/18 17:34:19;;;;;;;;;;;;;;;17.58;41.01;99379.19;1086177;54;19949;-79
2023/03/18 17:35:21;;;;;;;;;;;;;;;17.48;41.02;99378.75;1086097;54;19954;-80
2023/03/18 17:36:31;;;;;;;;;;;;;;;17.43;40.96;99384.78;1086177;54;19954;-79
2023/03/18 17:37:33;;;;;;;;;;;;;;;17.39;41.05;99382.69;1086198;54;19954;-81
2023/03/18 17:38:37;;;;;;;;;;;;;;;17.38;41.00;99381.06;1086153;54;19981;-79
2023/03/18 17:39:39;;;;;;;;;;;;;;;17.45;41.04;99392.72;1086797;39;20357;-80
2023/03/18 17:42:06;;;;;;;;;;;;;;;17.47;40.74;99390.63;1086114;54;19954;-80
2023/03/18 17:43:18;;;;;;;;;;;;;;;17.49;40.57;99391.25;1085920;54;20664;-79
2023/03/18 17:44:25;;;;;;;;;;;;;;;17.51;40.60;99391.88;1086003;54;19946;-79
2023/03/18 17:45:27;;;;;;;;;;;;;;;17.53;40.68;99389.81;1086068;54;20002;-80
2023/03/18 17:48:14;;;;;;;;;;;;;;;17.51;40.56;99393.75;1086053;54;19998;-80
2023/03/18 17:49:22;;;;;;;;;;;;;;;17.51;40.73;99399.97;1086611;54;19938;-81
2023/03/18 17:50:23;;;;;;;;;;;;;;;17.47;40.44;99385.22;1087721;54;19926;-81
2023/03/18 17:51:35;;;;;;;;;;;;;;;17.47;40.43;99396.03;1088607;46;19950;-81
2023/03/18 17:52:36;;;;;;;;;;;;;;;17.46;40.75;99394.38;1088063;54;19942;-80
2023/03/18 17:56:42;;;;;;;;;;;;;;;17.35;40.93;99386.88;1086925;54;19931;-81
2023/03/18 17:58:07;;;;;;;;;;;;;;;17.34;40.83;99396.00;1087033;54;19946;-82
2023/03/18 17:59:15;;;;;;;;;;;;;;;17.34;40.93;99396.00;1086169;54;19950;-81
2023/03/18 18:00:17;;;;;;;;;;;;;;;17.31;40.95;99397.25;1087738;54;19949;-80
2023/03/18 18:01:39;;;;;;;;;;;;;;;17.30;40.71;99393.69;1087759;54;19934;-81
2023/03/18 18:02:41;;;;;;;;;;;;;;;17.31;41.01;99394.56;1087572;54;19965;-81
2023/03/18 18:03:53;;;;;;;;;;;;;;;17.29;41.11;99385.81;1087372;54;19954;-81
2023/03/18 18:04:57;;;;;;;;;;;;;;;17.27;40.81;99391.44;1087717;54;19943;-80
2023/03/18 18:06:02;;;;;;;;;;;;;;;17.24;41.24;99391.00;1087401;54;19941;-80
2023/03/18 18:07:05;;;;;;;;;;;;;;;17.22;41.23;99398.47;1087859;47;19950;-81
2023/03/18 18:08:18;;;;;;;;;;;;;;;17.21;41.30;99392.22;1087506;54;20545;-82
2023/03/18 18:09:22;;;;;;;;;;;;;;;17.21;41.33;99394.94;1089853;47;19977;-81
2023/03/18 18:10:24;;;;;;;;;;;;;;;17.20;41.06;99395.97;1087360;54;19953;-81
2023/03/18 18:11:29;;;;;;;;;;;;;;;17.21;41.22;99394.94;1086170;54;19953;-79
2023/03/18 18:12:30;;;;;;;;;;;;;;;17.21;41.24;99403.03;1085665;54;19969;-80
2023/03/18 18:13:34;;;;;;;;;;;;;;;17.21;41.30;99391.41;1085909;54;20014;-79
2023/03/18 18:14:37;;;;;;;;;;;;;;;17.20;41.60;99398.66;1085886;54;19947;-80
2023/03/18 18:15:40;;;;;;;;;;;;;;;17.15;41.54;99393.88;1086076;54;19951;-80
2023/03/18 18:16:49;;;;;;;;;;;;;;;17.14;41.88;99399.50;1085928;54;19958;-79
2023/03/18 18:17:51;;;;;;;;;;;;;;;17.13;42.04;99395.13;1085799;54;19965;-80
2023/03/18 18:19:06;;;;;;;;;;;;;;;16.96;42.23;99394.66;1085782;54;19950;-80
2023/03/18 18:20:12;;;;;;;;;;;;;;;16.83;42.59;99390.00;1085720;54;19957;-80
2023/03/18 18:21:17;;;;;;;;;;;;;;;16.83;42.63;99387.31;1086147;54;19949;-78
2023/03/18 18:22:35;;;;;;;;;;;;;;;16.89;42.27;99391.91;1085889;54;19947;-79
2023/03/18 18:23:37;;;;;;;;;;;;;;;16.89;42.26;99393.75;1086741;39;20487;-81
2023/03/18 18:24:41;;;;;;;;;;;;;;;16.92;42.39;99396.88;1085619;46;19946;-80
2023/03/18 18:25:48;;;;;;;;;;;;;;;16.80;42.80;99395.81;1085846;54;20434;-80
2023/03/18 18:26:52;;;;;;;;;;;;;;;16.75;42.55;99391.03;1086281;54;19947;-79
2023/03/18 18:28:13;;;;;;;;;;;;;;;16.75;42.87;99398.28;1086169;54;20778;-80
2023/03/18 18:29:18;;;;;;;;;;;;;;;16.71;42.84;99394.34;1086335;54;19947;-80
2023/03/18 18:30:36;;;;;;;;;;;;;;;16.66;42.45;99395.75;1086046;54;19950;-79
2023/03/18 18:31:40;;;;;;;;;;;;;;;16.65;42.49;99399.47;1086468;54;19985;-80
2023/03/18 18:32:47;;;;;;;;;;;;;;;16.69;42.51;99408.00;1086457;54;19946;-79
2023/03/18 18:33:54;;;;;;;;;;;;;;;16.72;42.62;99406.81;1086318;54;19946;-79
2023/03/18 18:34:55;;;;;;;;;;;;;;;16.70;42.33;99406.97;1085956;54;19939;-79
2023/03/18 18:36:04;;;;;;;;;;;;;;;16.67;42.54;99400.13;1086384;54;19945;-78
2023/03/18 18:37:06;;;;;;;;;;;;;;;16.66;42.39;99400.34;1085979;54;19951;-79
2023/03/18 18:38:15;;;;;;;;;;;;;;;16.60;42.58;99407.34;1086308;54;20006;-80
2023/03/18 18:39:19;;;;;;;;;;;;;;;16.60;43.01;99407.34;1085898;54;19946;-80
2023/03/18 18:40:20;;;;;;;;;;;;;;;16.61;42.74;99409.03;1086042;54;19947;-78
2023/03/18 18:41:24;;;;;;;;;;;;;;;16.52;43.07;99407.53;1085982;54;19946;-80
2023/03/18 18:42:31;;;;;;;;;;;;;;;16.55;42.65;99404.41;1086185;54;19947;-79
2023/03/18 18:43:35;;;;;;;;;;;;;;;16.52;42.83;99415.63;1086531;46;20517;-80
2023/03/18 18:44:43;;;;;;;;;;;;;;;16.52;43.12;99410.22;1086251;54;19981;-80
2023/03/18 18:45:44;;;;;;;;;;;;;;;16.49;43.13;99411.44;1086680;54;19953;-80